sensor_id;sensor_type;location;lat;lon;timestamp;P1;P2;P0
68198;PMS7003;55021;51.554;17.044;2022-11-15T00:03:25;82.00;61.00;37.75
68198;PMS7003;55021;51.554;17.044;2022-11-15T00:18:27;90.75;66.75;42.00
68198;PMS7003;55021;51.554;17.044;2022-11-15T00:33:30;87.25;60.75;36.75
68198;PMS7003;55021;51.554;17.044;2022-11-15T00:48:32;84.50;62.75;39.75
68198;PMS7003;55021;51.554;17.044;2022-11-15T01:03:35;73.50;56.25;35.75
68198;PMS7003;55021;51.554;17.044;2022-11-15T01:19:01;70.00;52.50;32.00
68198;PMS7003;55021;51.554;17.044;2022-11-15T01:34:28;79.00;60.75;37.75
68198;PMS7003;55021;51.554;17.044;2022-11-15T01:49:31;80.00;58.75;38.00
68198;PMS7003;55021;51.554;17.044;2022-11-15T02:04:35;81.50;62.50;39.50
68198;PMS7003;55021;51.554;17.044;2022-11-15T02:19:46;77.00;59.75;36.25
68198;PMS7003;55021;51.554;17.044;2022-11-15T02:34:56;80.75;61.00;37.75
68198;PMS7003;55021;51.554;17.044;2022-11-15T02:50:01;71.00;53.25;32.75
68198;PMS7003;55021;51.554;17.044;2022-11-15T03:05:06;65.75;49.75;32.00
68198;PMS7003;55021;51.554;17.044;2022-11-15T03:20:13;64.75;47.75;30.25
68198;PMS7003;55021;51.554;17.044;2022-11-15T03:35:18;65.25;52.75;32.00
68198;PMS7003;55021;51.554;17.044;2022-11-15T03:50:22;55.75;47.00;29.25
68198;PMS7003;55021;51.554;17.044;2022-11-15T04:05:25;61.50;48.00;30.50
68198;PMS7003;55021;51.554;17.044;2022-11-15T04:20:28;71.50;51.75;33.25
68198;PMS7003;55021;51.554;17.044;2022-11-15T04:35:30;76.25;56.75;34.00
68198;PMS7003;55021;51.554;17.044;2022-11-15T04:50:32;74.00;54.50;32.75
68198;PMS7003;55021;51.554;17.044;2022-11-15T05:05:35;67.00;51.00;32.25
68198;PMS7003;55021;51.554;17.044;2022-11-15T05:20:37;57.00;46.75;30.25
68198;PMS7003;55021;51.554;17.044;2022-11-15T05:35:40;61.25;52.50;31.00
68198;PMS7003;55021;51.554;17.044;2022-11-15T05:50:44;61.00;48.50;30.75
68198;PMS7003;55021;51.554;17.044;2022-11-15T06:05:47;66.50;51.25;31.75
68198;PMS7003;55021;51.554;17.044;2022-11-15T06:20:49;94.00;68.00;41.00
68198;PMS7003;55021;51.554;17.044;2022-11-15T06:35:51;82.25;61.25;39.25
68198;PMS7003;55021;51.554;17.044;2022-11-15T06:50:54;91.50;69.00;42.50
68198;PMS7003;55021;51.554;17.044;2022-11-15T07:05:57;78.00;57.75;33.50
68198;PMS7003;55021;51.554;17.044;2022-11-15T07:21:01;70.50;52.75;32.00
68198;PMS7003;55021;51.554;17.044;2022-11-15T07:36:04;78.00;59.25;35.00
68198;PMS7003;55021;51.554;17.044;2022-11-15T07:51:09;76.00;59.25;36.75
68198;PMS7003;55021;51.554;17.044;2022-11-15T08:06:12;85.25;63.75;39.50
68198;PMS7003;55021;51.554;17.044;2022-11-15T08:21:14;105.33;80.00;46.33
68198;PMS7003;55021;51.554;17.044;2022-11-15T08:36:19;78.75;59.25;36.75
68198;PMS7003;55021;51.554;17.044;2022-11-15T08:51:21;74.25;55.75;34.75
68198;PMS7003;55021;51.554;17.044;2022-11-15T09:06:29;75.75;58.25;36.75
68198;PMS7003;55021;51.554;17.044;2022-11-15T09:21:39;74.50;55.50;35.75
68198;PMS7003;55021;51.554;17.044;2022-11-15T09:36:42;69.50;53.75;33.50
68198;PMS7003;55021;51.554;17.044;2022-11-15T09:51:45;67.00;52.00;32.75
68198;PMS7003;55021;51.554;17.044;2022-11-15T10:06:49;64.00;48.50;31.25
68198;PMS7003;55021;51.554;17.044;2022-11-15T10:21:56;60.75;49.50;30.75
68198;PMS7003;55021;51.554;17.044;2022-11-15T10:37:02;65.25;49.50;31.00
68198;PMS7003;55021;51.554;17.044;2022-11-15T10:52:12;60.00;46.75;31.00
68198;PMS7003;55021;51.554;17.044;2022-11-15T11:07:20;59.75;45.00;28.50
68198;PMS7003;55021;51.554;17.044;2022-11-15T11:22:25;83.33;69.00;43.33
68198;PMS7003;55021;51.554;17.044;2022-11-15T11:37:37;55.50;42.25;27.00
68198;PMS7003;55021;51.554;17.044;2022-11-15T11:52:54;69.00;51.75;31.50
68198;PMS7003;55021;51.554;17.044;2022-11-15T12:08:20;56.25;42.75;26.50
68198;PMS7003;55021;51.554;17.044;2022-11-15T12:23:25;58.00;44.00;26.00
68198;PMS7003;55021;51.554;17.044;2022-11-15T12:53:43;56.25;43.50;26.50
68198;PMS7003;55021;51.554;17.044;2022-11-15T13:08:47;43.75;36.50;23.00
68198;PMS7003;55021;51.554;17.044;2022-11-15T13:23:52;55.75;41.50;26.25
68198;PMS7003;55021;51.554;17.044;2022-11-15T13:38:56;49.75;41.25;25.75
68198;PMS7003;55021;51.554;17.044;2022-11-15T13:54:01;55.00;44.00;29.00
68198;PMS7003;55021;51.554;17.044;2022-11-15T14:09:14;58.00;46.00;29.00
68198;PMS7003;55021;51.554;17.044;2022-11-15T14:24:20;54.50;40.75;25.25
68198;PMS7003;55021;51.554;17.044;2022-11-15T14:39:22;61.50;45.00;28.50
68198;PMS7003;55021;51.554;17.044;2022-11-15T14:54:25;59.25;45.00;27.75
68198;PMS7003;55021;51.554;17.044;2022-11-15T15:09:27;56.50;44.50;27.00
68198;PMS7003;55021;51.554;17.044;2022-11-15T15:24:29;59.75;49.25;30.25
68198;PMS7003;55021;51.554;17.044;2022-11-15T15:39:32;58.00;43.75;27.00
68198;PMS7003;55021;51.554;17.044;2022-11-15T15:54:34;65.00;49.00;30.00
68198;PMS7003;55021;51.554;17.044;2022-11-15T16:09:42;69.25;54.25;34.00
68198;PMS7003;55021;51.554;17.044;2022-11-15T16:24:45;71.00;53.75;34.00
68198;PMS7003;55021;51.554;17.044;2022-11-15T16:39:47;49.00;39.75;24.00
68198;PMS7003;55021;51.554;17.044;2022-11-15T16:54:50;52.50;42.25;27.00
68198;PMS7003;55021;51.554;17.044;2022-11-15T17:10:00;51.75;41.50;25.50
68198;PMS7003;55021;51.554;17.044;2022-11-15T17:25:10;72.25;54.25;35.00
68198;PMS7003;55021;51.554;17.044;2022-11-15T17:40:12;114.67;89.33;55.67
68198;PMS7003;55021;51.554;17.044;2022-11-15T17:55:14;74.75;56.50;34.75
68198;PMS7003;55021;51.554;17.044;2022-11-15T18:10:17;97.00;77.33;48.33
68198;PMS7003;55021;51.554;17.044;2022-11-15T18:25:20;85.75;62.00;41.00
68198;PMS7003;55021;51.554;17.044;2022-11-15T18:40:22;80.25;59.25;38.00
68198;PMS7003;55021;51.554;17.044;2022-11-15T18:55:24;74.00;55.25;34.50
68198;PMS7003;55021;51.554;17.044;2022-11-15T19:10:26;75.50;60.00;37.75
68198;PMS7003;55021;51.554;17.044;2022-11-15T19:25:28;84.75;63.50;41.75
68198;PMS7003;55021;51.554;17.044;2022-11-15T19:40:32;92.75;65.50;42.00
68198;PMS7003;55021;51.554;17.044;2022-11-15T19:55:35;99.33;80.00;47.33
68198;PMS7003;55021;51.554;17.044;2022-11-15T20:10:37;115.00;94.00;56.33
68198;PMS7003;55021;51.554;17.044;2022-11-15T20:25:39;136.67;107.67;66.67
68198;PMS7003;55021;51.554;17.044;2022-11-15T20:40:44;129.67;104.33;63.33
68198;PMS7003;55021;51.554;17.044;2022-11-15T20:55:47;129.00;104.33;62.33
68198;PMS7003;55021;51.554;17.044;2022-11-15T21:10:51;132.33;105.00;67.33
68198;PMS7003;55021;51.554;17.044;2022-11-15T21:25:53;126.67;97.67;60.33
68198;PMS7003;55021;51.554;17.044;2022-11-15T21:40:55;120.00;103.00;59.00
68198;PMS7003;55021;51.554;17.044;2022-11-15T21:55:58;140.00;114.75;69.75
68198;PMS7003;55021;51.554;17.044;2022-11-15T22:11:01;146.75;120.25;71.50
68198;PMS7003;55021;51.554;17.044;2022-11-15T22:26:03;163.50;133.00;79.00
68198;PMS7003;55021;51.554;17.044;2022-11-15T22:41:06;163.00;127.50;75.50
68198;PMS7003;55021;51.554;17.044;2022-11-15T22:56:17;179.50;141.75;80.75
